createdAt,value
2023-04-23T00:02:04.617Z,13.87
2023-04-23T00:04:41.659Z,13.82
2023-04-23T00:07:16.701Z,13.78
2023-04-23T00:09:52.397Z,13.74
2023-04-23T00:12:27.272Z,13.72
2023-04-23T00:15:02.003Z,13.71
2023-04-23T00:17:35.772Z,13.69
2023-04-23T00:20:12.109Z,13.67
2023-04-23T00:22:45.764Z,13.63
2023-04-23T00:25:19.231Z,13.60
2023-04-23T00:27:52.754Z,13.57
2023-04-23T00:30:26.610Z,13.54
2023-04-23T00:33:00.480Z,13.50
2023-04-23T00:35:34.193Z,13.47
2023-04-23T00:38:07.527Z,13.44
2023-04-23T00:40:41.532Z,13.41
2023-04-23T00:43:15.810Z,13.40
2023-04-23T00:45:49.509Z,13.38
2023-04-23T00:48:23.832Z,13.34
2023-04-23T00:51:05.589Z,13.30
2023-04-23T00:53:39.407Z,13.27
2023-04-23T00:56:13.509Z,13.24
2023-04-23T00:58:48.104Z,13.21
2023-04-23T01:01:22.420Z,13.17
2023-04-23T01:03:57.261Z,13.13
2023-04-23T01:06:32.387Z,13.08
2023-04-23T01:09:07.001Z,13.02
2023-04-23T01:11:41.743Z,12.97
2023-04-23T01:14:14.999Z,12.94
2023-04-23T01:16:48.706Z,12.93
2023-04-23T01:19:22.996Z,12.90
2023-04-23T01:22:01.472Z,12.84
2023-04-23T01:24:35.270Z,12.80
2023-04-23T01:27:09.769Z,12.77
2023-04-23T01:29:44.044Z,12.75
2023-04-23T01:32:18.886Z,12.71
2023-04-23T01:34:54.689Z,12.67
2023-04-23T01:37:29.305Z,12.66
2023-04-23T01:40:03.349Z,12.63
2023-04-23T01:42:37.596Z,12.59
2023-04-23T01:45:12.942Z,12.54
2023-04-23T01:47:46.333Z,12.50
2023-04-23T01:50:22.212Z,12.48
2023-04-23T01:52:56.210Z,12.47
2023-04-23T01:55:30.007Z,12.45
2023-04-23T01:58:04.383Z,12.42
2023-04-23T02:00:38.581Z,12.36
2023-04-23T02:03:13.226Z,12.34
2023-04-23T02:05:47.913Z,12.32
2023-04-23T02:08:21.360Z,12.31
2023-04-23T02:10:54.787Z,12.30
2023-04-23T02:13:27.962Z,12.28
2023-04-23T02:16:01.759Z,12.27
2023-04-23T02:18:35.558Z,12.27
2023-04-23T02:21:09.270Z,12.27
2023-04-23T02:23:42.723Z,12.26
2023-04-23T02:26:16.124Z,12.23
2023-04-23T02:28:49.583Z,12.21
2023-04-23T02:31:23.104Z,12.19
2023-04-23T02:33:56.729Z,12.19
2023-04-23T02:36:31.485Z,12.16
2023-04-23T02:39:05.319Z,12.14
2023-04-23T02:41:38.953Z,12.12
2023-04-23T02:44:12.578Z,12.12
2023-04-23T02:46:46.865Z,12.10
2023-04-23T02:49:21.236Z,12.07
2023-04-23T02:51:54.740Z,12.04
2023-04-23T02:54:28.225Z,12.02
2023-04-23T02:57:02.010Z,12.00
2023-04-23T02:59:35.939Z,11.98
2023-04-23T03:02:09.907Z,11.96
2023-04-23T03:04:44.078Z,11.95
2023-04-23T03:07:18.414Z,11.91
2023-04-23T03:09:52.287Z,11.86
2023-04-23T03:12:26.007Z,11.84
2023-04-23T03:14:59.935Z,11.83
2023-04-23T03:17:34.689Z,11.82
2023-04-23T03:20:12.132Z,11.82
2023-04-23T03:22:46.483Z,11.81
2023-04-23T03:25:20.873Z,11.81
2023-04-23T03:27:54.859Z,11.79
2023-04-23T03:30:29.152Z,11.77
2023-04-23T03:33:03.341Z,11.75
2023-04-23T03:35:37.124Z,11.72
2023-04-23T03:38:12.737Z,11.70
2023-04-23T03:40:47.247Z,11.68
2023-04-23T03:43:21.597Z,11.67
2023-04-23T03:46:18.993Z,11.67
2023-04-23T03:48:53.954Z,11.69
2023-04-23T03:51:32.204Z,11.70
2023-04-23T03:54:06.010Z,11.70
2023-04-23T03:57:12.295Z,11.69
2023-04-23T03:59:59.028Z,11.66
2023-04-23T04:02:32.626Z,11.61
2023-04-23T04:05:06.761Z,11.61
2023-04-23T04:07:41.472Z,11.65
2023-04-23T04:10:15.381Z,11.69
2023-04-23T04:12:49.401Z,11.70
2023-04-23T04:15:22.984Z,11.72
2023-04-23T04:17:56.551Z,11.73
2023-04-23T04:20:30.410Z,11.72
2023-04-23T04:23:03.880Z,11.74
2023-04-23T04:25:40.422Z,11.79
2023-04-23T04:28:14.518Z,11.81
2023-04-23T04:30:49.816Z,11.85
2023-04-23T04:33:23.738Z,11.90
2023-04-23T04:35:58.009Z,11.92
2023-04-23T04:38:31.546Z,11.97
2023-04-23T04:41:05.597Z,12.03
2023-04-23T04:43:39.269Z,12.22
2023-04-23T04:46:14.079Z,12.62
2023-04-23T04:48:47.426Z,13.24
2023-04-23T04:51:21.169Z,13.80
2023-04-23T04:53:55.110Z,14.26
2023-04-23T04:56:28.636Z,14.65
2023-04-23T04:59:02.828Z,14.89
2023-04-23T05:01:37.647Z,14.84
2023-04-23T05:04:11.577Z,14.69
2023-04-23T05:06:45.386Z,14.92
2023-04-23T05:09:18.890Z,15.08
2023-04-23T05:11:52.587Z,15.05
2023-04-23T05:14:27.096Z,15.27
2023-04-23T05:17:01.156Z,16.25
2023-04-23T05:19:34.772Z,17.44
2023-04-23T05:22:08.412Z,18.45
2023-04-23T05:24:42.253Z,19.43
2023-04-23T05:27:15.902Z,20.47
2023-04-23T05:29:49.739Z,21.30
2023-04-23T05:32:23.409Z,21.99
2023-04-23T05:34:57.148Z,21.93
2023-04-23T05:37:31.499Z,21.69
2023-04-23T05:40:07.370Z,22.06
2023-04-23T05:42:41.369Z,22.56
2023-04-23T05:45:15.926Z,23.17
2023-04-23T05:47:49.614Z,24.00
2023-04-23T05:50:23.783Z,24.55
2023-04-23T05:52:57.310Z,24.86
2023-04-23T05:55:31.119Z,25.53
2023-04-23T05:58:05.869Z,26.45
2023-04-23T06:00:41.368Z,27.06
2023-04-23T06:03:15.030Z,27.40
2023-04-23T06:05:48.876Z,27.17
2023-04-23T06:08:24.942Z,27.11
2023-04-23T06:10:59.120Z,27.49
2023-04-23T06:13:33.394Z,27.76
2023-04-23T06:16:06.751Z,27.87
2023-04-23T06:18:40.874Z,28.24
2023-04-23T06:21:14.615Z,29.01
2023-04-23T06:23:48.506Z,29.57
2023-04-23T06:26:22.344Z,30.27
2023-04-23T06:28:56.826Z,30.39
2023-04-23T06:31:36.497Z,30.32
2023-04-23T06:34:12.870Z,30.90
2023-04-23T06:36:46.352Z,31.85
2023-04-23T06:39:19.959Z,32.78
2023-04-23T06:41:53.680Z,33.41
2023-04-23T06:44:33.032Z,33.94
2023-04-23T06:47:07.504Z,34.67
2023-04-23T06:49:41.354Z,35.30
2023-04-23T06:52:15.593Z,35.78
2023-04-23T06:54:49.346Z,36.75
2023-04-23T06:57:23.394Z,36.94
2023-04-23T06:59:56.488Z,36.96
2023-04-23T07:02:32.121Z,37.36
2023-04-23T07:05:06.483Z,37.84
2023-04-23T07:07:41.133Z,37.65
2023-04-23T07:10:17.797Z,37.45
2023-04-23T07:12:52.156Z,37.19
2023-04-23T07:15:26.080Z,37.27
2023-04-23T07:17:59.875Z,37.83
2023-04-23T07:20:34.077Z,38.60
2023-04-23T07:23:07.676Z,39.23
2023-04-23T07:25:41.414Z,39.78
2023-04-23T07:28:15.231Z,40.02
2023-04-23T07:30:49.493Z,40.32
2023-04-23T07:33:23.352Z,40.25
2023-04-23T07:35:57.098Z,40.47
2023-04-23T07:38:30.737Z,40.63
2023-04-23T07:41:04.339Z,40.94
2023-04-23T07:43:38.308Z,41.26
2023-04-23T07:46:12.141Z,42.01
2023-04-23T07:48:45.916Z,42.22
2023-04-23T07:51:19.478Z,42.52
2023-04-23T07:53:54.587Z,42.21
2023-04-23T07:56:28.417Z,40.81
2023-04-23T07:59:02.203Z,38.85
2023-04-23T08:01:36.214Z,36.89
2023-04-23T08:04:10.589Z,35.01
2023-04-23T08:06:44.416Z,33.53
2023-04-23T08:09:18.516Z,32.65
2023-04-23T08:11:52.108Z,32.24
2023-04-23T08:14:26.202Z,31.96
2023-04-23T08:16:59.972Z,31.52
2023-04-23T08:19:34.118Z,30.66
2023-04-23T08:22:07.998Z,29.76
2023-04-23T08:24:41.790Z,29.19
2023-04-23T08:27:15.712Z,29.29
2023-04-23T08:29:49.139Z,30.63
2023-04-23T08:32:23.069Z,32.47
2023-04-23T08:34:57.117Z,34.44
2023-04-23T08:37:31.801Z,35.96
2023-04-23T08:40:07.561Z,36.64
2023-04-23T08:42:47.392Z,37.63
2023-04-23T08:45:21.502Z,38.49
2023-04-23T08:47:55.298Z,39.57
2023-04-23T08:50:31.283Z,40.22
2023-04-23T08:53:06.859Z,40.53
2023-04-23T08:55:41.381Z,39.90
2023-04-23T08:58:15.600Z,38.16
2023-04-23T09:00:49.918Z,37.74
2023-04-23T09:03:24.710Z,39.03
2023-04-23T09:05:58.760Z,39.52
2023-04-23T09:08:32.878Z,38.88
2023-04-23T09:11:07.486Z,38.68
2023-04-23T09:13:41.865Z,38.32
2023-04-23T09:16:16.039Z,37.41
2023-04-23T09:18:51.917Z,36.18
2023-04-23T09:21:25.974Z,34.61
2023-04-23T09:23:59.575Z,33.87
2023-04-23T09:26:33.024Z,33.83
2023-04-23T09:29:17.940Z,33.30
2023-04-23T09:31:53.360Z,31.86
2023-04-23T09:34:28.077Z,30.48
2023-04-23T09:37:04.136Z,29.44
2023-04-23T09:39:38.617Z,28.67
2023-04-23T09:42:13.914Z,27.95
2023-04-23T09:44:47.665Z,27.53
2023-04-23T09:47:23.129Z,28.28
2023-04-23T09:49:58.068Z,29.92
2023-04-23T09:52:32.641Z,31.21
2023-04-23T09:55:07.523Z,32.40
2023-04-23T09:57:42.635Z,33.84
2023-04-23T10:00:21.611Z,35.42
2023-04-23T10:02:55.891Z,37.24
2023-04-23T10:05:49.764Z,38.24
2023-04-23T10:08:25.154Z,38.38
2023-04-23T10:11:13.520Z,38.14
2023-04-23T10:13:53.164Z,37.73
2023-04-23T10:16:35.595Z,37.56
2023-04-23T10:19:15.844Z,36.87
2023-04-23T10:24:31.261Z,36.33
2023-04-23T10:27:05.769Z,35.40
2023-04-23T10:29:40.623Z,35.22
2023-04-23T10:32:16.021Z,35.26
2023-04-23T10:34:53.334Z,34.98
2023-04-23T10:37:28.187Z,33.74
2023-04-23T10:40:09.702Z,32.56
2023-04-23T10:42:45.512Z,31.53
2023-04-23T10:45:24.715Z,30.66
2023-04-23T10:48:00.508Z,29.82
2023-04-23T10:50:42.946Z,29.88
2023-04-23T10:53:27.926Z,30.36
2023-04-23T10:56:10.969Z,31.39
2023-04-23T10:58:53.644Z,32.53
2023-04-23T11:01:30.808Z,33.00
2023-04-23T11:04:24.647Z,33.56
2023-04-23T11:07:00.523Z,34.42
2023-04-23T11:09:39.034Z,35.68
2023-04-23T11:12:16.063Z,37.34
2023-04-23T11:14:54.980Z,38.46
2023-04-23T11:18:04.225Z,38.36
2023-04-23T11:20:39.263Z,38.45
2023-04-23T11:23:34.306Z,38.36
2023-04-23T11:26:09.265Z,37.87
2023-04-23T11:28:45.386Z,38.28
2023-04-23T11:31:19.132Z,38.76
2023-04-23T11:33:53.455Z,38.55
2023-04-23T11:36:27.940Z,37.55
2023-04-23T11:39:03.392Z,36.95
2023-04-23T11:41:36.926Z,37.00
2023-04-23T11:44:10.547Z,36.80
2023-04-23T11:46:44.784Z,36.43
2023-04-23T11:49:22.752Z,35.68
2023-04-23T11:51:56.545Z,35.44
2023-04-23T11:54:31.578Z,35.01
2023-04-23T11:57:07.175Z,34.51
2023-04-23T11:59:41.351Z,33.89
2023-04-23T12:02:15.204Z,34.43
2023-04-23T12:04:48.854Z,34.99
2023-04-23T12:07:33.823Z,35.59
2023-04-23T12:10:08.516Z,36.62
2023-04-23T12:12:42.128Z,37.03
2023-04-23T12:15:16.237Z,37.18
2023-04-23T12:17:53.636Z,37.10
2023-04-23T12:20:27.076Z,36.78
2023-04-23T12:23:08.685Z,36.63
2023-04-23T12:25:43.713Z,36.24
2023-04-23T12:28:17.783Z,36.42
2023-04-23T12:30:51.229Z,37.10
2023-04-23T12:33:24.796Z,37.55
2023-04-23T12:35:58.747Z,37.55
2023-04-23T12:38:33.143Z,37.66
2023-04-23T12:41:06.983Z,37.78
2023-04-23T12:43:40.369Z,37.05
2023-04-23T12:46:14.234Z,36.35
2023-04-23T12:48:48.053Z,35.42
2023-04-23T12:51:21.910Z,35.63
2023-04-23T12:53:55.950Z,36.44
2023-04-23T12:56:29.998Z,36.55
2023-04-23T12:59:05.415Z,36.18
2023-04-23T13:01:39.400Z,35.68
2023-04-23T13:04:13.088Z,35.16
2023-04-23T13:06:47.215Z,34.42
2023-04-23T13:09:22.161Z,33.92
2023-04-23T13:11:56.552Z,33.53
2023-04-23T13:14:32.153Z,33.28
2023-04-23T13:17:06.772Z,33.13
2023-04-23T13:19:41.035Z,32.70
2023-04-23T13:22:15.205Z,32.03
2023-04-23T13:24:49.322Z,31.33
2023-04-23T13:27:23.089Z,30.73
2023-04-23T13:29:56.962Z,30.24
2023-04-23T13:32:32.635Z,29.67
2023-04-23T13:35:06.789Z,29.18
2023-04-23T13:37:41.571Z,28.79
2023-04-23T13:40:16.115Z,28.45
2023-04-23T13:42:50.699Z,28.07
2023-04-23T13:45:24.474Z,27.72
2023-04-23T13:47:58.411Z,27.52
2023-04-23T13:50:32.090Z,27.33
2023-04-23T13:53:05.741Z,27.17
2023-04-23T13:55:39.480Z,26.97
2023-04-23T13:58:13.394Z,26.75
2023-04-23T14:00:47.514Z,26.56
2023-04-23T14:03:21.982Z,26.38
2023-04-23T14:05:55.912Z,26.29
2023-04-23T14:08:29.569Z,26.23
2023-04-23T14:11:03.311Z,26.18
2023-04-23T14:13:37.039Z,26.19
2023-04-23T14:16:11.029Z,26.17
2023-04-23T14:18:44.788Z,26.03
2023-04-23T14:21:18.447Z,25.88
2023-04-23T14:24:02.808Z,25.72
2023-04-23T14:29:36.364Z,25.52
2023-04-23T14:32:10.328Z,25.57
2023-04-23T14:34:44.263Z,25.51
2023-04-23T14:37:18.825Z,25.51
2023-04-23T14:39:52.378Z,25.53
2023-04-23T14:42:26.437Z,25.39
2023-04-23T14:45:04.022Z,25.32
2023-04-23T14:47:38.051Z,25.31
2023-04-23T14:50:13.115Z,25.27
2023-04-23T14:52:50.903Z,25.22
2023-04-23T14:55:25.511Z,25.15
2023-04-23T14:57:59.105Z,25.06
2023-04-23T15:00:33.569Z,24.98
2023-04-23T15:03:11.505Z,24.92
2023-04-23T15:05:45.230Z,24.88
2023-04-23T15:08:18.904Z,24.85
2023-04-23T15:10:52.721Z,24.79
2023-04-23T15:13:46.211Z,24.75
2023-04-23T15:16:47.454Z,24.74
2023-04-23T15:19:22.477Z,24.67
2023-04-23T15:21:56.046Z,24.56
2023-04-23T15:24:30.388Z,24.52
2023-04-23T15:27:04.365Z,24.52
2023-04-23T15:29:38.827Z,24.49
2023-04-23T15:32:12.396Z,24.46
2023-04-23T15:34:46.602Z,24.48
2023-04-23T15:37:21.394Z,24.50
2023-04-23T15:39:54.982Z,24.47
2023-04-23T15:42:28.960Z,24.45
2023-04-23T15:45:02.596Z,24.42
2023-04-23T15:47:36.675Z,24.39
2023-04-23T15:50:13.248Z,24.36
2023-04-23T15:52:49.255Z,24.33
2023-04-23T15:55:25.145Z,24.30
2023-04-23T15:58:02.139Z,24.27
2023-04-23T16:00:39.780Z,24.23
2023-04-23T16:03:15.574Z,24.12
2023-04-23T16:05:51.471Z,24.00
2023-04-23T16:08:25.718Z,23.88
2023-04-23T16:11:01.149Z,23.77
2023-04-23T16:13:35.188Z,23.73
2023-04-23T16:16:09.603Z,23.73
2023-04-23T16:18:43.588Z,23.70
2023-04-23T16:21:18.124Z,23.68
2023-04-23T16:23:52.729Z,23.67
2023-04-23T16:26:27.903Z,23.66
2023-04-23T16:31:39.107Z,23.59
2023-04-23T16:34:13.256Z,23.56
2023-04-23T16:36:49.195Z,23.52
2023-04-23T16:39:29.261Z,23.50
2023-04-23T16:42:02.583Z,23.46
2023-04-23T16:44:38.272Z,23.40
2023-04-23T16:47:14.123Z,23.34
2023-04-23T16:49:52.306Z,23.28
2023-04-23T16:52:27.541Z,23.23
2023-04-23T16:55:03.388Z,23.18
2023-04-23T16:57:39.916Z,23.12
2023-04-23T17:00:17.093Z,23.06
2023-04-23T17:02:52.427Z,23.01
2023-04-23T17:05:31.195Z,22.95
2023-04-23T17:08:11.779Z,22.89
2023-04-23T17:10:50.357Z,22.82
2023-04-23T17:13:26.605Z,22.76
2023-04-23T17:16:04.898Z,22.70
2023-04-23T17:18:39.420Z,22.64
2023-04-23T17:21:14.117Z,22.57
2023-04-23T17:23:49.544Z,22.50
2023-04-23T17:26:24.962Z,22.42
2023-04-23T17:29:02.828Z,22.33
2023-04-23T17:31:38.625Z,22.25
2023-04-23T17:34:15.995Z,22.17
2023-04-23T17:36:52.034Z,22.07
2023-04-23T17:39:30.190Z,21.96
2023-04-23T17:42:04.534Z,21.87
2023-04-23T17:44:41.117Z,21.79
2023-04-23T17:47:25.566Z,21.71
2023-04-23T17:50:01.113Z,21.64
2023-04-23T17:52:35.864Z,21.58
2023-04-23T17:55:12.362Z,21.51
2023-04-23T17:57:51.493Z,21.45
2023-04-23T18:00:30.235Z,21.38
2023-04-23T18:03:08.226Z,21.30
2023-04-23T18:08:34.000Z,21.18
2023-04-23T18:11:15.999Z,21.10
2023-04-23T18:13:53.903Z,21.02
2023-04-23T18:16:30.359Z,20.96
2023-04-23T18:19:04.865Z,20.91
2023-04-23T18:21:39.985Z,20.86
2023-04-23T18:24:15.734Z,20.82
2023-04-23T18:26:52.424Z,20.75
2023-04-23T18:29:32.800Z,20.68
2023-04-23T18:32:11.065Z,20.60
2023-04-23T18:34:52.962Z,20.53
2023-04-23T18:37:51.683Z,20.47
2023-04-23T18:40:32.585Z,20.41
2023-04-23T18:43:08.249Z,20.36
2023-04-23T18:45:44.013Z,20.31
2023-04-23T18:48:48.797Z,20.27
2023-04-23T18:51:34.199Z,20.22
2023-04-23T18:54:17.625Z,20.17
2023-04-23T18:56:57.781Z,20.14
2023-04-23T18:59:38.174Z,20.10
2023-04-23T19:02:18.708Z,20.06
2023-04-23T19:05:04.819Z,20.03
2023-04-23T19:07:55.455Z,19.97
2023-04-23T19:10:31.978Z,19.91
2023-04-23T19:13:07.396Z,19.86
2023-04-23T19:15:46.481Z,19.82
2023-04-23T19:18:22.780Z,19.78
2023-04-23T19:21:06.067Z,19.73
2023-04-23T19:23:45.481Z,19.69
2023-04-23T19:26:22.722Z,19.65
2023-04-23T19:29:03.571Z,19.59
2023-04-23T19:31:42.197Z,19.53
2023-04-23T19:34:34.701Z,19.47
2023-04-23T19:37:09.914Z,19.43
2023-04-23T19:39:48.605Z,19.38
2023-04-23T19:42:25.828Z,19.36
2023-04-23T19:45:13.113Z,19.30
2023-04-23T19:47:54.385Z,19.21
2023-04-23T19:50:35.352Z,19.16
2023-04-23T19:53:12.215Z,19.10
2023-04-23T19:55:59.969Z,19.05
2023-04-23T19:59:00.450Z,19.00
2023-04-23T20:01:44.834Z,18.93
2023-04-23T20:04:22.187Z,18.88
2023-04-23T20:06:59.906Z,18.84
2023-04-23T20:09:38.892Z,18.78
2023-04-23T20:12:17.284Z,18.72
2023-04-23T20:14:52.099Z,18.67
2023-04-23T20:17:30.668Z,18.61
2023-04-23T20:20:07.383Z,18.54
2023-04-23T20:22:44.402Z,18.48
2023-04-23T20:25:22.996Z,18.44
2023-04-23T20:28:00.492Z,18.40
2023-04-23T20:30:34.292Z,18.37
2023-04-23T20:33:08.901Z,18.35
2023-04-23T20:35:45.549Z,18.33
2023-04-23T20:38:20.919Z,18.30
2023-04-23T20:40:54.850Z,18.29
2023-04-23T20:43:29.909Z,18.29
2023-04-23T20:46:07.176Z,18.29
2023-04-23T20:48:44.092Z,18.28
2023-04-23T20:51:18.418Z,18.27
2023-04-23T20:53:52.516Z,18.26
2023-04-23T20:56:26.739Z,18.24
2023-04-23T20:59:00.569Z,18.22
2023-04-23T21:01:34.376Z,18.19
2023-04-23T21:04:11.190Z,18.13
2023-04-23T21:06:44.999Z,18.09
2023-04-23T21:09:18.532Z,18.07
2023-04-23T21:11:53.080Z,18.04
2023-04-23T21:14:26.972Z,17.97
2023-04-23T21:17:00.500Z,17.89
2023-04-23T21:19:34.094Z,17.83
2023-04-23T21:22:08.406Z,17.76
2023-04-23T21:24:41.918Z,17.71
2023-04-23T21:27:22.205Z,17.65
2023-04-23T21:29:56.560Z,17.60
2023-04-23T21:32:30.448Z,17.54
2023-04-23T21:35:04.179Z,17.49
2023-04-23T21:37:38.334Z,17.42
2023-04-23T21:40:13.563Z,17.37
2023-04-23T21:42:47.961Z,17.29
2023-04-23T21:45:21.931Z,17.19
2023-04-23T21:47:57.223Z,17.12
2023-04-23T21:50:32.854Z,17.06
2023-04-23T21:53:07.276Z,17.00
2023-04-23T21:55:40.797Z,16.94
2023-04-23T21:58:17.652Z,16.90
2023-04-23T22:00:53.333Z,16.85
2023-04-23T22:03:36.342Z,16.80
2023-04-23T22:06:13.276Z,16.77
2023-04-23T22:08:47.240Z,16.75
2023-04-23T22:11:20.888Z,16.73
2023-04-23T22:13:54.589Z,16.71
2023-04-23T22:16:31.455Z,16.70
2023-04-23T22:19:05.280Z,16.67
2023-04-23T22:21:39.012Z,16.62
2023-04-23T22:24:13.194Z,16.59
2023-04-23T22:26:46.924Z,16.56
2023-04-23T22:29:20.179Z,16.53
2023-04-23T22:31:53.575Z,16.43
2023-04-23T22:34:27.145Z,16.32
2023-04-23T22:37:00.901Z,16.24
2023-04-23T22:39:34.673Z,16.21
2023-04-23T22:42:08.796Z,16.18
2023-04-23T22:44:42.109Z,16.13
2023-04-23T22:47:15.305Z,16.08
2023-04-23T22:49:48.717Z,16.05
2023-04-23T22:52:22.475Z,16.03
2023-04-23T22:54:57.127Z,16.02
2023-04-23T22:57:31.063Z,16.02
2023-04-23T23:00:07.801Z,16.02
2023-04-23T23:02:41.938Z,16.00
2023-04-23T23:05:16.021Z,15.97
2023-04-23T23:07:49.527Z,15.94
2023-04-23T23:10:23.494Z,15.92
2023-04-23T23:12:57.551Z,15.89
2023-04-23T23:15:31.029Z,15.85
2023-04-23T23:18:04.501Z,15.81
2023-04-23T23:20:39.554Z,15.78
2023-04-23T23:23:13.163Z,15.76
2023-04-23T23:25:46.568Z,15.74
2023-04-23T23:28:19.961Z,15.70
2023-04-23T23:30:54.050Z,15.68
2023-04-23T23:33:28.004Z,15.63
2023-04-23T23:36:01.589Z,15.60
2023-04-23T23:38:35.284Z,15.56
2023-04-23T23:41:09.265Z,15.49
2023-04-23T23:43:43.333Z,15.43
2023-04-23T23:46:18.568Z,15.40
2023-04-23T23:48:52.606Z,15.37
2023-04-23T23:51:26.296Z,15.33
2023-04-23T23:54:00.471Z,15.31
2023-04-23T23:56:33.925Z,15.30
2023-04-23T23:59:07.650Z,15.30
